Sotirios Mitroglou

Recruteur - Asteras
20 Févr 2028
Dimanche
Processus

Personnalité

Adaptabilité (19) Ambition (9) Controverse (9) Loyauté (10) Pression (15) Professionnalisme (20) Sportivité (13) Tempérament (11)

Profil

Style d'entraînement Démocratique
Diplôme Continental C
Détermination 5
Gestion des joueurs 6
Motivation 11
Discipline 4
Satisfaction professionnelle
100%
Fatigue
0%
Rôle Recruteur
Salaire 18.9K p/s
Contrat 14.03.2028

Performance

Comportement Bon
Efficacité de l'entraînement
41%
Développement des joueurs
45%
Prévention des blessures
60%
Mise en place tactique
40%

Événements récents

Négociation de contrat entamée maintenant
A participé à une réunion de recrutement maintenant
A participé à une réunion de recrutement maintenant
Négociation de contrat entamée maintenant
Négociation de contrat entamée maintenant
Négociation de contrat entamée maintenant
Négociation de contrat entamée 7j
Négociation de contrat entamée 7j

Suivi en cours

105
Joueur Club Statut Capacité Confiance Observé Dernière observation Dernier vote
Karl Madianga OFI Actif 88 / 102 55% 1 17.01.2028 -
Taher Mohamed Real Salt Lake Négociation 119 / 119 67% 1 01.01.2028 -
Khama Dolly Utrecht Négociation 123 / 124 67% 1 01.06.2027 -
Razvan Mitrita San Diego Football Club Négociation 118 / 120 66% 1 01.06.2027 -
Juan Bezerra BK Hacken Négociation 117 / 121 66% 1 01.06.2027 -
Shota Shekiladze Akhmat Grozny Négociation 110 / 110 66% 1 01.06.2027 -
Ethan Galbraith Swansea City Actif 138 / 126 40% 4 30.05.2027 -
Evagoras Charalabous Anorthosis Actif 104 / 99 40% 1 30.05.2027 -
Idris El Mizouni Leyton Orient Actif 126 / 112 40% 1 29.05.2027 -
Zeidane Inoussa Swansea City Actif 122 / 118 40% 1 29.05.2027 -
Leo Castledine Middlesbrough Actif 139 / 140 40% 7 28.05.2027 -
Nicolas Verkooijen PSV Actif 101 / 117 40% 1 28.05.2027 -
Scott Twine Bristol City Actif 128 / 122 40% 1 27.05.2027 -
Richard Koné Queens Park Rangers Actif 119 / 119 40% 1 27.05.2027 -
Amaury Morales Pumas UNAM Actif 132 / 130 40% 1 26.05.2027 -
Anestis Mythou PAOK Actif 107 / 102 40% 4 25.05.2027 -
Bosun Lawal Stoke City Actif 128 / 121 40% 1 24.05.2027 -
Maren Kefas Plateau United Actif 96 / 90 40% 2 23.05.2027 -
Milan van Ewijk Mansfield Town Actif 135 / 127 40% 1 23.05.2027 -
Ezekiel Kwame Alladoh Philadelphia Union Actif 129 / 129 40% 4 21.05.2027 -
Stanley Mills Oxford United Actif 127 / 120 40% 1 21.05.2027 -
Isaiah Jones Luton Town Actif 130 / 128 40% 1 21.05.2027 -
Adama Goïta Remo Stars Actif 90 / 104 40% 1 21.05.2027 -
Ben Ahmed Kohili Paradou Actif 118 / 97 40% 4 19.05.2027 -
Iwan Morgan Grimsby Town Actif 109 / 110 40% 3 18.05.2027 -
Tiziano Dornell Danubio Actif 110 / 120 40% 1 18.05.2027 -
Lévy Néne FC Nordsjaelland Actif 118 / 129 40% 2 16.05.2027 -
Tomáš Rigo Stoke City Actif 140 / 128 40% 1 15.05.2027 -
Jack Diamond Stockport County Actif 123 / 121 40% 1 14.05.2027 -
Tyler Goodrham Oxford United Actif 126 / 121 40% 1 14.05.2027 -
Toby Collyer West Bromwich Albion Actif 129 / 125 40% 1 13.05.2027 -
Lewis Bate Stockport County Actif 127 / 120 40% 2 12.05.2027 -
Pelle Mattsson Norwich City Actif 134 / 126 40% 1 12.05.2027 -
Lorenzo De Leo Renate Actif 94 / 103 40% 2 11.05.2027 -
Christos Mouzakitis Hull City Actif 139 / 129 40% 2 10.05.2027 -
Joel Bagan Cardiff City Actif 113 / 116 40% 1 10.05.2027 -
Víctor Guzmán Sporting CP Actif 89 / 107 40% 2 08.05.2027 -
Agustín Fernández NK Zavrc Actif 94 / 95 40% 1 08.05.2027 -
Luke Baartman ES Mostaganem Actif 116 / 122 40% 3 06.05.2027 -
Borna Knezović Casarano Actif 94 / 104 40% 1 06.05.2027 -
Giorgi Chakvetadze Watford Actif 120 / 121 40% 2 05.05.2027 -
Nicolas Madsen Queens Park Rangers Actif 138 / 131 40% 2 05.05.2027 -
Ethan Williams Peterborough United Actif 117 / 122 40% 3 04.05.2027 -
Jason Knight Bristol City Actif 135 / 128 40% 1 04.05.2027 -
Angelos Neofytou Omonoia Actif 96 / 107 40% 2 03.05.2027 -
Max Bird Birmingham Actif 133 / 126 40% 2 01.05.2027 -
Will Fish Cardiff City Actif 119 / 120 40% 2 01.05.2027 -
Callum Doyle Wrexham Actif 129 / 124 40% 1 28.04.2027 -
Zak Swanson Bradford City Actif 120 / 114 40% 2 27.04.2027 -
Jacques Ekomié Wrexham Actif 135 / 125 40% 1 27.04.2027 -
Mateus Mané Manchester United Actif 123 / 145 40% 2 26.04.2027 -
Oliver Skipp Leicester City Actif 133 / 136 40% 2 25.04.2027 -
Darlvin Yeboah Bechem United Actif 78 / 85 40% 3 25.04.2027 -
Godbless Ayeke AS Korofina Actif 90 / 81 40% 1 23.04.2027 -
Chem Campbell Stevenage Actif 109 / 123 40% 1 23.04.2027 -
Darlin Yongwa Norwich City Actif 120 / 120 40% 2 22.04.2027 -
Adilson Malanda Middlesbrough Actif 139 / 134 40% 1 22.04.2027 -
Luca Mazzeo Potenza Actif 108 / 96 40% 1 21.04.2027 -
Miloš Jovičić Zabbar St. Patrick Actif 82 / 87 40% 1 21.04.2027 -
Shea Charles Southampton Actif 143 / 138 40% 1 21.04.2027 -
Mathias Jørgensen Blackburn Rovers Actif 117 / 122 40% 1 20.04.2027 -
Luke McNally Bristol City Actif 130 / 127 40% 2 19.04.2027 -
Kellen Fisher Norwich City Actif 120 / 130 40% 2 18.04.2027 -
Emanuel Aiwu Apollon Actif 112 / 114 40% 1 18.04.2027 -
Serge Daura Cotonsport Garoua Actif 96 / 98 40% 1 18.04.2027 -
Mduduzi Shabalala Kaizer Chiefs Actif 104 / 115 40% 3 16.04.2027 -
Tyreece Campbell Charlton Athletic Actif 122 / 112 40% 1 15.04.2027 -
Finn Azaz Southampton Actif 143 / 123 40% 1 12.04.2027 -
Juan Mosquera Sheffield Wednesday Actif 130 / 121 40% 2 11.04.2027 -
Welington Southampton Actif 127 / 137 40% 4 10.04.2027 -
David Turnbull Cardiff City Actif 122 / 112 40% 1 10.04.2027 -
Edoardo Bove Watford Actif 131 / 130 40% 1 09.04.2027 -
Chineme Chinonso Ikorodu City Actif 105 / 101 40% 3 07.04.2027 -
Baba N'Diaye Chelyabinsk Actif 85 / 87 40% 2 05.04.2027 -
Tariq Lamptey Queens Park Rangers Actif 126 / 131 40% 1 04.04.2027 -
Federico Serra Arezzo Actif 97 / 96 40% 1 03.04.2027 -
Hazeem Bakre Crawley Town Actif 71 / 91 40% 1 03.04.2027 -
Othmane Maamma Watford Actif 114 / 121 40% 1 03.04.2027 -
Jack McGlynn Stoke City Actif 133 / 125 40% 1 03.04.2027 -
Adam Randell Bristol City Actif 132 / 129 40% 1 02.04.2027 -
Teden Mengi Luton Town Actif 115 / 122 40% 1 02.04.2027 -
Gustavo Ferreira Benfica Actif 93 / 97 40% 1 01.04.2027 -
Dramane Kamagaté USM Alger Actif 99 / 120 40% 1 31.03.2027 -
Wendell Livyi Bereh Actif 100 / 94 40% 2 30.03.2027 -
David Kalokoh Ajax Actif 120 / 125 40% 1 30.03.2027 -
Will Lankshear Middlesbrough Actif 133 / 132 40% 2 29.03.2027 -
Othmane Boussaid Aris Thessaloniki Actif 136 / 119 40% 1 27.03.2027 -
Matvii Ponomarenko Dynamo Kyiv Actif 109 / 113 40% 1 27.03.2027 -
Japhet Tanganga Sheffield United Actif 144 / 129 40% 1 23.03.2027 -
Bobby Thomas Coventry City Actif 141 / 126 40% 1 23.03.2027 -
Alagie Wally Veres Actif 88 / 84 40% 1 22.03.2027 -
Williams Manyama SuperSport United Actif 117 / 112 40% 1 22.03.2027 -
Dom Ballard Leyton Orient Actif 133 / 127 40% 1 21.03.2027 -
Jacob Greaves Ipswich Town Actif 137 / 135 40% 1 21.03.2027 -
Juan David Delgado Chernihiv Actif 71 / 87 40% 1 20.03.2027 -
Josh Edwards Charlton Athletic Actif 134 / 118 40% 1 20.03.2027 -
Josh Tymon Swansea City Actif 129 / 119 40% 1 19.03.2027 -
Tshepang Moremi Orlando Pirates Actif 131 / 119 40% 1 18.03.2027 Plus d'infos
Derensili Sanches Fernandes Huddersfield Town Actif 125 / 115 40% 1 17.03.2027 -
Mattéo Tramoni Pisa Actif 139 / 129 40% 1 16.03.2027 -
Ronald Swansea City Actif 117 / 134 40% 1 16.03.2027 -
Álvaro Carrillo APOEL Actif 117 / 129 40% 1 14.03.2027 -
Mandla Erasmus SuperSport United Actif 102 / 118 40% 1 13.03.2027 -
Danil Glebov Dinamo Moscow Actif 135 / 126 40% 1 13.03.2027 -
Nicolò Savona Nottingham Forest Actif 155 / 139 40% 1 08.03.2027 -